Time;durP1;ratioP1;P1;durP2;ratioP2;P2;SDS_P1;SDS_P2;PMS_P1;PMS_P2;Temp;Humidity;BMP_temperature;BMP_pressure;BME280_temperature;BME280_humidity;BME280_pressure;Samples;Min_cycle;Max_cycle;Signal;HPM_P1;HPM_P2
2022/06/07 00:00:41;;;;;;;7.93;7.15;;;13.70;99.90;;;;;;5093581;28;20059;-78
2022/06/07 00:03:07;;;;;;;8.65;7.40;;;13.70;99.90;;;;;;5093290;28;20030;-78
2022/06/07 00:05:32;;;;;;;9.50;7.90;;;13.60;99.90;;;;;;5093063;28;20423;-78
2022/06/07 00:07:58;;;;;;;8.63;7.40;;;13.70;99.90;;;;;;5093291;28;20027;-78
2022/06/07 00:10:25;;;;;;;8.02;7.32;;;13.80;99.90;;;;;;5093574;28;20077;-78
2022/06/07 00:12:50;;;;;;;8.60;7.53;;;13.80;99.90;;;;;;5098500;28;20020;-79
2022/06/07 00:15:17;;;;;;;7.65;6.90;;;13.80;99.90;;;;;;5102267;28;20115;-78
2022/06/07 00:17:44;;;;;;;6.90;6.30;;;13.70;99.90;;;;;;5084985;28;20055;-78
2022/06/07 00:20:10;;;;;;;9.90;6.85;;;13.80;99.90;;;;;;5092383;28;20073;-78
2022/06/07 00:22:36;;;;;;;9.98;7.32;;;13.80;99.90;;;;;;5100833;28;20074;-79
2022/06/07 00:25:04;;;;;;;7.32;6.63;;;13.80;99.90;;;;;;5100845;28;20024;-77
2022/06/07 00:27:30;;;;;;;7.75;6.97;;;13.80;99.90;;;;;;5095675;28;20026;-78
2022/06/07 00:29:56;;;;;;;6.78;6.18;;;13.80;99.90;;;;;;5109532;28;20051;-78
2022/06/07 00:32:23;;;;;;;7.80;6.88;;;13.80;99.90;;;;;;5093681;28;20040;-78
2022/06/07 00:34:49;;;;;;;7.38;6.75;;;13.90;99.90;;;;;;5092025;28;20101;-77
2022/06/07 00:37:15;;;;;;;7.70;7.00;;;13.90;99.90;;;;;;5092734;28;20464;-78
2022/06/07 00:39:40;;;;;;;8.25;7.32;;;13.90;99.90;;;;;;5093109;28;20024;-78
2022/06/07 00:42:06;;;;;;;8.65;7.88;;;13.80;99.90;;;;;;5092350;28;20074;-78
2022/06/07 00:44:36;;;;;;;8.75;7.95;;;13.90;99.90;;;;;;5093030;28;20483;-78
2022/06/07 00:47:10;;;;;;;10.73;7.47;;;13.90;99.90;;;;;;5088011;28;20032;-77
2022/06/07 00:49:41;;;;;;;11.68;7.93;;;13.90;99.90;;;;;;5093380;28;20016;-78
2022/06/07 00:52:07;;;;;;;8.68;7.95;;;13.80;99.90;;;;;;5090404;28;20531;-78
2022/06/07 00:54:33;;;;;;;8.38;7.60;;;13.80;99.90;;;;;;5091956;28;20103;-78
2022/06/07 00:57:00;;;;;;;9.20;8.30;;;13.80;99.90;;;;;;5092431;28;20104;-78
2022/06/07 00:59:26;;;;;;;11.13;9.25;;;13.70;99.90;;;;;;5092433;28;20032;-78
2022/06/07 01:01:53;;;;;;;9.73;8.80;;;13.80;99.90;;;;;;5091418;28;20064;-78
2022/06/07 01:04:21;;;;;;;9.18;8.38;;;13.80;99.90;;;;;;5092716;28;20020;-78
2022/06/07 01:12:14;;;;;;;11.27;8.57;;;13.80;99.90;;;;;;5092495;28;20035;-77
2022/06/07 01:14:40;;;;;;;10.32;9.23;;;13.80;99.90;;;;;;5092575;28;20044;-77
2022/06/07 01:17:06;;;;;;;8.82;8.13;;;13.80;99.90;;;;;;5091252;28;20054;-77
2022/06/07 01:19:32;;;;;;;14.48;8.60;;;13.80;99.90;;;;;;5092149;28;20392;-77
2022/06/07 01:21:58;;;;;;;11.48;9.70;;;13.80;99.90;;;;;;5092054;28;20035;-78
2022/06/07 01:24:23;;;;;;;11.50;9.55;;;13.70;99.90;;;;;;5091784;28;20020;-77
2022/06/07 01:26:50;;;;;;;10.35;9.35;;;13.80;99.90;;;;;;5091726;28;20616;-77
2022/06/07 01:29:16;;;;;;;11.20;9.75;;;13.80;99.90;;;;;;5091395;28;20027;-77
2022/06/07 01:31:42;;;;;;;10.88;9.88;;;13.80;99.90;;;;;;5092144;28;20024;-77
2022/06/07 01:34:10;;;;;;;10.27;9.35;;;13.80;99.90;;;;;;5091305;28;20424;-78
2022/06/07 01:36:35;;;;;;;11.38;10.18;;;13.70;99.90;;;;;;5091581;28;20032;-78
2022/06/07 01:41:55;;;;;;;10.80;9.70;;;13.60;99.90;;;;;;5092356;28;20036;-78
2022/06/07 01:44:29;;;;;;;10.73;9.68;;;13.70;99.90;;;;;;5091126;28;20123;-78
2022/06/07 01:46:57;;;;;;;12.70;8.57;;;13.70;99.90;;;;;;5092262;28;20489;-77
2022/06/07 01:49:24;;;;;;;12.50;10.40;;;13.60;99.90;;;;;;5091953;28;20028;-77
2022/06/07 01:51:53;;;;;;;10.52;9.60;;;13.60;99.90;;;;;;5090909;28;20024;-77
2022/06/07 01:54:20;;;;;;;10.73;9.73;;;13.60;99.90;;;;;;5091780;28;20485;-77
2022/06/07 01:56:47;;;;;;;11.57;10.50;;;13.70;99.90;;;;;;5091905;28;20077;-77
2022/06/07 01:59:13;;;;;;;11.50;10.30;;;13.70;99.90;;;;;;5091229;28;20040;-77
2022/06/07 02:01:39;;;;;;;11.25;10.13;;;13.70;99.90;;;;;;5091762;28;20028;-77
2022/06/07 02:04:05;;;;;;;10.10;9.10;;;13.70;99.90;;;;;;5091674;28;20118;-76
2022/06/07 02:06:31;;;;;;;10.65;9.55;;;13.70;99.90;;;;;;5091092;28;20495;-77
2022/06/07 02:08:57;;;;;;;9.95;8.85;;;13.70;99.90;;;;;;5091283;28;20497;-77
2022/06/07 02:11:25;;;;;;;10.43;9.45;;;13.70;99.90;;;;;;5091037;28;20115;-77
2022/06/07 02:13:52;;;;;;;10.75;9.68;;;13.70;99.90;;;;;;5077720;28;20048;-77
2022/06/07 02:16:19;;;;;;;11.88;9.82;;;13.70;99.90;;;;;;5095905;28;20032;-77
2022/06/07 02:18:46;;;;;;;11.27;10.13;;;13.70;99.90;;;;;;5096507;28;20456;-77
2022/06/07 02:21:12;;;;;;;10.70;9.63;;;13.70;99.90;;;;;;5096864;28;20028;-76
2022/06/07 02:23:38;;;;;;;10.70;9.60;;;13.70;99.90;;;;;;5095473;28;20028;-78
2022/06/07 02:26:10;;;;;;;10.10;9.05;;;13.70;99.90;;;;;;5094249;28;20034;-77
2022/06/07 02:28:38;;;;;;;10.52;9.50;;;13.70;99.90;;;;;;5096327;28;20016;-78
2022/06/07 02:31:07;;;;;;;10.02;8.95;;;13.70;99.90;;;;;;5096652;28;20055;-77
2022/06/07 02:33:34;;;;;;;8.15;7.50;;;13.70;99.90;;;;;;5098739;28;20016;-78
2022/06/07 02:36:00;;;;;;;9.80;8.98;;;13.80;99.90;;;;;;5100392;28;20032;-77
2022/06/07 02:38:26;;;;;;;12.75;9.35;;;13.70;99.90;;;;;;5095268;28;20068;-77
2022/06/07 02:40:53;;;;;;;10.43;9.52;;;13.70;99.90;;;;;;5094372;28;20027;-77
2022/06/07 02:43:19;;;;;;;14.38;10.23;;;13.60;99.90;;;;;;5095443;28;20031;-77
2022/06/07 02:45:45;;;;;;;12.82;11.57;;;13.60;99.90;;;;;;5095251;28;20032;-77
2022/06/07 02:48:10;;;;;;;12.50;11.20;;;13.60;99.90;;;;;;5085433;28;20074;-76
2022/06/07 02:50:37;;;;;;;11.05;10.02;;;13.70;99.90;;;;;;5089212;28;20043;-76
2022/06/07 02:53:03;;;;;;;10.35;9.45;;;13.70;99.90;;;;;;5094722;28;20020;-77
2022/06/07 02:55:29;;;;;;;12.23;9.90;;;13.70;99.90;;;;;;5094426;28;20083;-76
2022/06/07 02:57:54;;;;;;;12.38;10.13;;;13.80;99.90;;;;;;5094564;28;20051;-76
2022/06/07 03:00:20;;;;;;;11.40;10.32;;;13.70;99.90;;;;;;5094898;28;20055;-76
2022/06/07 03:02:46;;;;;;;11.57;10.45;;;13.90;99.90;;;;;;5094243;28;20036;-76
2022/06/07 03:05:12;;;;;;;11.38;10.25;;;13.90;99.90;;;;;;5094267;28;20480;-77
2022/06/07 03:07:39;;;;;;;10.00;9.15;;;13.90;99.90;;;;;;5093613;28;20077;-76
2022/06/07 03:10:06;;;;;;;9.52;8.73;;;13.90;99.90;;;;;;5094143;28;20480;-77
2022/06/07 03:12:32;;;;;;;11.82;10.45;;;13.80;99.90;;;;;;5094595;28;20024;-77
2022/06/07 03:14:58;;;;;;;12.40;10.55;;;13.80;99.90;;;;;;5092375;28;20052;-77
2022/06/07 03:17:24;;;;;;;14.05;9.73;;;13.80;99.90;;;;;;5081482;28;20030;-76
2022/06/07 03:19:51;;;;;;;9.45;8.45;;;13.80;99.90;;;;;;5094195;28;20032;-77
2022/06/07 03:22:17;;;;;;;11.30;10.00;;;13.80;99.90;;;;;;5093327;28;20029;-76
2022/06/07 03:24:43;;;;;;;11.52;10.00;;;13.70;99.90;;;;;;5082668;28;20056;-76
2022/06/07 03:27:09;;;;;;;10.73;9.73;;;13.80;99.90;;;;;;5089979;28;20062;-76
2022/06/07 03:29:35;;;;;;;11.23;10.10;;;13.80;99.90;;;;;;5093558;28;20036;-76
2022/06/07 03:32:01;;;;;;;10.95;9.85;;;13.70;99.90;;;;;;5093753;28;20028;-76
2022/06/07 03:34:26;;;;;;;10.15;9.32;;;13.70;99.90;;;;;;5094038;28;20052;-77
2022/06/07 03:36:53;;;;;;;11.00;9.88;;;13.70;99.90;;;;;;5093018;28;20039;-77
2022/06/07 03:39:18;;;;;;;10.88;9.88;;;13.70;99.90;;;;;;5094259;28;20058;-77
2022/06/07 03:41:45;;;;;;;15.20;10.50;;;13.70;99.90;;;;;;5093816;28;20028;-77
2022/06/07 03:44:12;;;;;;;15.15;10.70;;;13.70;99.90;;;;;;5092864;28;20024;-77
2022/06/07 03:46:42;;;;;;;12.27;10.20;;;13.70;99.90;;;;;;5093913;28;20024;-77
2022/06/07 03:49:07;;;;;;;11.43;10.27;;;13.70;99.90;;;;;;5091146;28;20032;-76
2022/06/07 03:51:33;;;;;;;11.77;9.63;;;13.70;99.90;;;;;;5081498;28;20028;-77
2022/06/07 03:53:59;;;;;;;11.02;9.93;;;13.70;99.90;;;;;;5093336;28;20426;-76
2022/06/07 03:56:26;;;;;;;12.77;9.85;;;13.70;99.90;;;;;;5093898;28;20054;-77
2022/06/07 03:58:52;;;;;;;12.35;10.10;;;13.80;99.90;;;;;;5092220;28;20120;-76
2022/06/07 04:01:21;;;;;;;13.85;10.40;;;13.70;99.90;;;;;;5093424;28;20044;-77
2022/06/07 04:03:49;;;;;;;11.43;10.30;;;13.70;99.90;;;;;;5093476;28;20020;-77
2022/06/07 04:06:30;;;;;;;10.90;9.80;;;13.80;99.90;;;;;;5093381;28;20027;-77
2022/06/07 04:08:56;;;;;;;10.43;9.38;;;13.90;99.90;;;;;;5080875;28;20024;-77
2022/06/07 04:11:25;;;;;;;10.43;9.23;;;13.80;99.90;;;;;;5092834;28;20028;-77
2022/06/07 04:13:52;;;;;;;10.55;9.63;;;13.80;99.90;;;;;;5087022;28;20024;-77
2022/06/07 04:16:20;;;;;;;11.60;10.32;;;13.70;99.90;;;;;;5085558;28;20434;-78
2022/06/07 04:18:46;;;;;;;11.68;10.48;;;13.70;99.90;;;;;;5090054;28;20499;-78
2022/06/07 04:21:13;;;;;;;11.23;10.13;;;13.80;99.90;;;;;;5086736;28;20027;-77
2022/06/07 04:23:39;;;;;;;11.15;10.05;;;13.80;99.90;;;;;;5097117;28;20491;-76
2022/06/07 04:26:10;;;;;;;11.15;10.15;;;13.80;99.90;;;;;;5094088;28;20028;-75
2022/06/07 04:28:36;;;;;;;11.02;9.88;;;13.90;99.90;;;;;;5093482;28;20035;-76
2022/06/07 04:31:02;;;;;;;11.45;10.30;;;13.90;99.90;;;;;;5094087;28;20425;-77
2022/06/07 04:33:28;;;;;;;11.63;10.38;;;13.90;99.90;;;;;;5094373;28;20380;-77
2022/06/07 04:35:53;;;;;;;10.48;9.48;;;13.90;99.90;;;;;;5094497;28;20069;-77
2022/06/07 04:38:19;;;;;;;11.07;9.93;;;14.00;99.90;;;;;;5085010;28;20088;-76
2022/06/07 04:40:44;;;;;;;10.65;9.63;;;13.90;99.90;;;;;;5090491;28;20372;-77
2022/06/07 04:43:11;;;;;;;9.95;9.00;;;14.00;99.90;;;;;;5092460;28;20111;-76
2022/06/07 04:45:39;;;;;;;10.93;9.75;;;14.00;99.90;;;;;;5092728;28;20085;-77
2022/06/07 04:48:06;;;;;;;10.52;9.55;;;14.00;99.90;;;;;;5091761;28;20107;-77
2022/06/07 04:50:33;;;;;;;11.60;10.52;;;14.00;99.90;;;;;;5092449;28;20035;-77
2022/06/07 04:52:59;;;;;;;13.20;11.85;;;14.00;99.90;;;;;;5078450;28;20134;-76
2022/06/07 04:55:25;;;;;;;18.38;15.38;;;14.10;99.90;;;;;;5091920;28;20052;-77
2022/06/07 04:57:51;;;;;;;23.25;19.08;;;14.20;99.90;;;;;;5092191;28;20018;-76
2022/06/07 05:00:18;;;;;;;27.38;21.02;;;14.20;99.90;;;;;;5091483;28;20104;-76
2022/06/07 05:02:46;;;;;;;30.38;20.05;;;14.20;99.90;;;;;;5092479;28;20020;-77
2022/06/07 05:05:13;;;;;;;20.30;17.65;;;14.30;99.90;;;;;;5087100;28;20498;-76
2022/06/07 05:07:39;;;;;;;18.05;16.10;;;14.40;99.90;;;;;;5082840;28;20035;-77
2022/06/07 05:10:07;;;;;;;16.30;14.63;;;14.30;99.90;;;;;;5092154;28;20487;-77
2022/06/07 05:12:33;;;;;;;14.43;12.80;;;14.40;99.90;;;;;;5092285;28;20032;-76
2022/06/07 05:14:59;;;;;;;15.40;11.85;;;14.50;99.90;;;;;;5091447;28;20076;-75
2022/06/07 05:17:25;;;;;;;11.23;10.07;;;14.50;99.90;;;;;;5092402;28;20055;-75
2022/06/07 05:19:50;;;;;;;13.70;9.70;;;14.50;99.90;;;;;;5092121;28;20484;-76
2022/06/07 05:22:16;;;;;;;11.85;9.32;;;14.60;99.90;;;;;;5091094;28;20020;-76
2022/06/07 05:24:42;;;;;;;11.85;9.25;;;14.60;99.90;;;;;;5092223;28;20115;-77
2022/06/07 05:27:10;;;;;;;12.20;9.93;;;14.60;99.90;;;;;;5091544;28;20099;-76
2022/06/07 05:29:55;;;;;;;10.63;9.32;;;14.70;99.90;;;;;;5091307;28;20093;-77
2022/06/07 05:32:21;;;;;;;9.93;9.13;;;14.70;99.90;;;;;;5090682;28;20031;-77
2022/06/07 05:34:47;;;;;;;10.63;9.30;;;14.80;99.90;;;;;;5089861;28;20025;-78
2022/06/07 05:37:15;;;;;;;12.45;9.02;;;14.80;99.90;;;;;;5088397;28;20028;-77
2022/06/07 05:39:41;;;;;;;9.65;8.88;;;14.90;99.90;;;;;;5089152;28;20062;-77
2022/06/07 05:42:09;;;;;;;9.50;8.70;;;14.90;99.90;;;;;;5087372;28;20376;-77
2022/06/07 05:44:35;;;;;;;11.65;9.25;;;14.90;99.90;;;;;;5088527;28;20042;-77
2022/06/07 05:47:00;;;;;;;11.93;8.85;;;15.60;99.90;;;;;;5086364;28;20107;-77
2022/06/07 05:49:29;;;;;;;10.38;8.68;;;15.10;99.90;;;;;;5088282;28;20534;-77
2022/06/07 05:51:55;;;;;;;12.20;9.30;;;15.10;99.90;;;;;;5085012;28;20020;-77
2022/06/07 05:54:21;;;;;;;9.35;7.63;;;15.10;99.90;;;;;;5090745;28;20028;-78
2022/06/07 05:56:46;;;;;;;10.32;9.05;;;15.10;99.90;;;;;;5087818;28;20049;-76
2022/06/07 05:59:12;;;;;;;9.65;8.77;;;15.30;99.90;;;;;;5091615;28;20048;-77
2022/06/07 06:01:38;;;;;;;10.60;9.35;;;15.30;99.90;;;;;;5093478;28;20441;-77
2022/06/07 06:04:07;;;;;;;10.00;8.98;;;15.30;99.90;;;;;;5092472;28;20036;-77
2022/06/07 06:06:33;;;;;;;9.48;8.45;;;15.40;99.90;;;;;;5087605;28;20042;-77
2022/06/07 06:11:43;;;;;;;9.02;8.23;;;15.40;99.90;;;;;;5091483;28;20385;-77
2022/06/07 06:14:09;;;;;;;8.73;7.93;;;15.40;99.90;;;;;;5093766;28;20024;-77
2022/06/07 06:16:34;;;;;;;7.85;7.15;;;15.40;99.90;;;;;;5090885;28;20028;-76
2022/06/07 06:19:00;;;;;;;9.02;8.13;;;15.40;99.90;;;;;;5087919;28;20024;-77
2022/06/07 06:21:28;;;;;;;8.57;7.78;;;15.50;99.90;;;;;;5093181;28;20059;-77
2022/06/07 06:23:57;;;;;;;9.15;8.35;;;15.60;99.90;;;;;;5089811;28;20086;-77
2022/06/07 06:26:23;;;;;;;10.15;8.52;;;15.70;99.90;;;;;;5090149;28;20039;-77
2022/06/07 06:28:52;;;;;;;9.00;8.13;;;15.80;99.90;;;;;;5093239;28;20028;-77
2022/06/07 06:31:19;;;;;;;8.87;7.20;;;15.90;99.90;;;;;;5092927;28;20051;-78
2022/06/07 06:33:48;;;;;;;8.23;7.40;;;15.90;99.90;;;;;;5087755;28;20683;-77
2022/06/07 06:36:15;;;;;;;8.95;8.15;;;16.00;99.90;;;;;;5090139;28;20043;-75
2022/06/07 06:38:43;;;;;;;11.27;8.02;;;16.10;99.90;;;;;;5087206;28;20036;-75
2022/06/07 06:41:25;;;;;;;8.30;7.35;;;16.10;99.90;;;;;;5090603;28;20028;-75
2022/06/07 06:43:52;;;;;;;8.30;7.47;;;16.00;99.90;;;;;;5087277;28;20099;-76
2022/06/07 06:46:23;;;;;;;8.73;7.80;;;16.00;99.90;;;;;;5089099;28;20019;-75
2022/06/07 06:48:49;;;;;;;9.27;7.90;;;16.00;99.90;;;;;;5090253;28;20064;-76
2022/06/07 06:51:18;;;;;;;11.13;7.53;;;16.00;99.90;;;;;;5086396;28;20028;-76
2022/06/07 06:53:44;;;;;;;7.78;7.07;;;16.00;99.90;;;;;;5087362;28;20020;-74
2022/06/07 06:56:12;;;;;;;9.27;8.30;;;16.00;99.90;;;;;;5087411;28;20238;-75
2022/06/07 06:58:39;;;;;;;7.63;6.93;;;16.10;99.90;;;;;;5089884;28;20028;-75
2022/06/07 07:01:12;;;;;;;7.85;7.25;;;16.10;99.90;;;;;;5087177;28;20083;-75
2022/06/07 07:03:41;;;;;;;9.23;6.60;;;16.00;99.90;;;;;;5091240;28;20609;-76
2022/06/07 07:06:09;;;;;;;6.05;5.53;;;16.00;99.90;;;;;;5087843;28;20114;-75
2022/06/07 07:08:37;;;;;;;8.57;7.70;;;16.00;99.90;;;;;;5087863;28;20028;-75
2022/06/07 07:11:07;;;;;;;7.55;6.82;;;16.00;99.90;;;;;;5088312;28;20028;-76
2022/06/07 07:13:32;;;;;;;8.07;7.38;;;16.00;99.90;;;;;;5090443;28;20104;-75
2022/06/07 07:15:59;;;;;;;8.05;7.35;;;16.10;99.90;;;;;;5086939;28;20067;-75
2022/06/07 07:18:25;;;;;;;9.05;8.15;;;16.20;99.90;;;;;;5089549;28;20031;-75
2022/06/07 07:20:51;;;;;;;8.55;6.35;;;16.30;99.90;;;;;;5089569;28;20024;-74
2022/06/07 07:23:17;;;;;;;7.97;7.28;;;16.40;99.90;;;;;;5088069;28;20048;-74
2022/06/07 07:25:42;;;;;;;10.40;7.40;;;16.40;99.90;;;;;;5076291;28;20490;-75
2022/06/07 07:28:08;;;;;;;8.23;7.05;;;16.50;99.90;;;;;;5080495;28;20574;-75
2022/06/07 07:30:34;;;;;;;8.13;7.43;;;16.50;99.90;;;;;;5073087;28;20067;-74
2022/06/07 07:33:00;;;;;;;9.68;7.65;;;16.50;99.90;;;;;;5083200;28;20070;-74
2022/06/07 07:35:26;;;;;;;8.68;7.53;;;16.50;99.90;;;;;;5083848;28;20050;-76
2022/06/07 07:37:52;;;;;;;8.30;7.40;;;16.50;99.90;;;;;;5082287;28;20020;-75
2022/06/07 07:40:18;;;;;;;9.23;8.27;;;16.70;99.90;;;;;;5090317;28;20020;-77
2022/06/07 07:42:43;;;;;;;9.60;7.65;;;16.70;99.90;;;;;;5087700;28;20074;-75
2022/06/07 07:45:10;;;;;;;7.97;7.25;;;16.70;99.90;;;;;;5090372;28;20115;-74
2022/06/07 07:47:36;;;;;;;8.32;7.40;;;16.90;99.90;;;;;;5089239;28;20035;-74
2022/06/07 07:50:01;;;;;;;10.20;7.63;;;16.90;99.90;;;;;;5086559;28;20030;-75
2022/06/07 07:52:27;;;;;;;9.60;8.52;;;16.90;99.90;;;;;;5089183;28;20028;-75
2022/06/07 07:54:53;;;;;;;8.95;7.85;;;16.90;99.90;;;;;;5072511;28;20029;-74
2022/06/07 07:57:18;;;;;;;9.07;7.03;;;17.00;99.90;;;;;;5088330;28;20031;-76
2022/06/07 07:59:44;;;;;;;9.13;8.32;;;16.90;99.90;;;;;;5091926;28;20040;-76
2022/06/07 08:02:17;;;;;;;8.10;7.30;;;16.90;99.90;;;;;;5083045;28;20130;-75
2022/06/07 08:04:42;;;;;;;8.32;7.53;;;16.90;99.90;;;;;;5080640;28;20080;-74
2022/06/07 08:07:08;;;;;;;7.90;7.10;;;16.90;99.90;;;;;;5082423;28;20028;-74
2022/06/07 08:09:34;;;;;;;8.90;7.78;;;16.90;99.90;;;;;;5086854;28;20107;-75
2022/06/07 08:12:05;;;;;;;9.13;8.32;;;17.00;99.90;;;;;;5085934;28;20028;-76
2022/06/07 08:14:32;;;;;;;8.05;7.35;;;17.00;99.90;;;;;;5075523;28;20035;-79
2022/06/07 08:16:57;;;;;;;9.38;8.48;;;17.00;99.90;;;;;;5091054;28;20491;-76
2022/06/07 08:19:23;;;;;;;8.30;7.47;;;17.10;99.90;;;;;;5085059;28;20016;-81
2022/06/07 08:21:48;;;;;;;9.25;8.38;;;17.00;99.90;;;;;;5074895;28;20035;-80
2022/06/07 08:24:16;;;;;;;8.50;7.50;;;17.10;99.90;;;;;;5074241;28;20020;-80
2022/06/07 08:26:42;;;;;;;9.73;8.73;;;17.10;99.90;;;;;;5076022;28;20044;-75
2022/06/07 08:29:08;;;;;;;11.18;9.30;;;17.20;99.90;;;;;;5084968;28;20106;-74
2022/06/07 08:31:35;;;;;;;9.50;8.43;;;17.20;99.90;;;;;;5070487;28;20060;-74
2022/06/07 08:39:31;;;;;;;12.82;8.35;;;17.00;99.90;;;;;;5099479;28;20039;-74
2022/06/07 08:42:02;;;;;;;9.38;8.18;;;16.90;99.90;;;;;;5100376;28;20024;-74
2022/06/07 08:44:48;;;;;;;9.68;8.68;;;16.90;99.90;;;;;;5094588;28;20069;-75
2022/06/07 08:47:45;;;;;;;9.90;8.90;;;17.00;99.90;;;;;;5109393;28;20084;-74
2022/06/07 08:50:35;;;;;;;10.48;9.50;;;17.20;99.90;;;;;;5106109;28;20107;-72
2022/06/07 08:53:09;;;;;;;10.30;9.40;;;17.30;99.90;;;;;;5060698;28;20028;-74
2022/06/07 08:55:46;;;;;;;14.10;9.52;;;17.40;99.90;;;;;;5108946;28;20040;-72
2022/06/07 08:58:19;;;;;;;10.88;9.75;;;17.50;99.90;;;;;;5108815;28;20031;-72
2022/06/07 09:00:57;;;;;;;9.80;8.80;;;17.70;99.90;;;;;;5104081;28;20380;-72
2022/06/07 09:03:22;;;;;;;10.60;9.55;;;17.80;99.90;;;;;;5102597;28;20421;-74
2022/06/07 09:05:53;;;;;;;10.75;9.27;;;18.00;99.90;;;;;;5101606;28;20025;-73
2022/06/07 09:08:19;;;;;;;8.35;7.30;;;18.00;99.90;;;;;;5104051;28;20081;-74
2022/06/07 09:13:34;;;;;;;8.65;7.95;;;18.10;99.90;;;;;;5073746;28;20442;-72
2022/06/07 09:16:00;;;;;;;9.60;7.60;;;18.10;99.90;;;;;;5082913;28;20055;-73
2022/06/07 09:18:29;;;;;;;9.02;8.18;;;18.00;99.90;;;;;;5081342;28;20023;-74
2022/06/07 09:21:07;;;;;;;8.75;8.05;;;17.90;99.90;;;;;;5085095;28;20085;-73
2022/06/07 09:23:43;;;;;;;8.25;7.55;;;17.90;99.90;;;;;;5083731;28;20357;-74
2022/06/07 09:26:20;;;;;;;10.15;8.55;;;17.90;99.90;;;;;;5071077;28;20036;-75
2022/06/07 09:28:47;;;;;;;10.90;8.32;;;17.90;99.90;;;;;;5080793;28;20030;-74
2022/06/07 09:31:16;;;;;;;8.95;8.20;;;18.10;99.90;;;;;;5070995;28;20543;-77
2022/06/07 09:33:56;;;;;;;10.00;9.10;;;18.20;99.90;;;;;;5079097;28;20852;-77
2022/06/07 09:36:27;;;;;;;9.13;7.83;;;18.50;99.90;;;;;;5072179;28;20043;-77
2022/06/07 09:38:55;;;;;;;;;;;18.60;99.90;;;;;;5079391;28;20388;-77
2022/06/07 09:41:36;;;;;;;10.57;9.48;;;18.70;99.90;;;;;;5081936;28;20041;-77
2022/06/07 09:44:21;;;;;;;8.35;7.65;;;18.90;99.90;;;;;;5084230;28;20479;-77
2022/06/07 09:47:00;;;;;;;9.25;8.32;;;19.00;99.90;;;;;;5081731;28;20016;-72
2022/06/07 09:49:32;;;;;;;9.32;8.25;;;19.10;99.90;;;;;;5083874;28;20024;-73
2022/06/07 09:52:12;;;;;;;8.00;7.30;;;19.00;99.90;;;;;;5083570;28;20027;-72
2022/06/07 09:54:41;;;;;;;10.02;8.02;;;18.90;99.90;;;;;;5074132;28;20025;-78
2022/06/07 09:57:22;;;;;;;9.73;8.73;;;18.70;99.90;;;;;;5081447;28;20420;-76
2022/06/07 10:00:01;;;;;;;9.60;8.70;;;18.70;99.90;;;;;;5077972;28;20101;-77
2022/06/07 10:02:54;;;;;;;10.13;9.07;;;18.60;99.90;;;;;;5083528;28;20111;-75
2022/06/07 10:05:46;;;;;;;9.35;8.43;;;18.40;99.90;;;;;;5076688;28;20020;-72
2022/06/07 10:08:37;;;;;;;9.13;8.32;;;18.30;99.90;;;;;;5071484;28;20040;-72
2022/06/07 10:11:18;;;;;;;8.48;7.57;;;18.30;99.90;;;;;;5078936;28;20029;-72
2022/06/07 10:13:52;;;;;;;9.95;8.45;;;18.20;99.90;;;;;;5085223;28;20081;-76
2022/06/07 10:16:42;;;;;;;10.57;8.43;;;18.20;99.90;;;;;;5079096;28;20028;-75
2022/06/07 10:19:24;;;;;;;9.60;8.60;;;18.20;99.90;;;;;;5070351;28;20078;-76
2022/06/07 10:22:21;;;;;;;9.77;8.80;;;18.40;99.90;;;;;;5070177;28;20107;-75
2022/06/07 10:24:59;;;;;;;9.00;8.25;;;18.50;99.90;;;;;;5069768;28;20513;-76
2022/06/07 10:27:39;;;;;;;10.00;9.10;;;18.70;99.90;;;;;;5075125;28;20107;-76
2022/06/07 10:30:24;;;;;;;10.10;8.15;;;18.80;99.90;;;;;;5079141;28;20051;-77
2022/06/07 10:33:20;;;;;;;8.80;7.45;;;19.00;99.90;;;;;;5072727;28;20024;-77
2022/06/07 10:36:01;;;;;;;8.27;7.22;;;19.20;99.90;;;;;;5081347;28;20093;-77
2022/06/07 10:38:47;;;;;;;;;;;19.20;99.90;;;;;;5078957;28;20021;-76
2022/06/07 10:41:58;;;;;;;10.27;8.85;;;19.30;99.90;;;;;;5077225;28;19913;-76
2022/06/07 10:44:37;;;;;;;9.15;7.43;;;19.40;99.90;;;;;;4999001;28;20027;-76
2022/06/07 10:47:22;;;;;;;8.70;7.90;;;19.40;99.90;;;;;;5080920;28;20060;-77
2022/06/07 10:50:02;;;;;;;9.85;8.85;;;19.40;99.90;;;;;;5066540;28;20034;-78
2022/06/07 10:52:33;;;;;;;9.18;8.43;;;19.40;99.90;;;;;;5086242;28;20043;-76
2022/06/07 10:55:23;;;;;;;10.25;7.90;;;19.50;99.90;;;;;;5088046;28;20119;-75
2022/06/07 10:57:57;;;;;;;8.80;8.10;;;19.40;99.90;;;;;;5083054;28;20063;-77
2022/06/07 11:00:40;;;;;;;11.13;8.40;;;19.30;99.90;;;;;;5085456;28;20480;-75
2022/06/07 11:03:20;;;;;;;10.00;9.10;;;19.30;99.90;;;;;;5077796;28;20109;-77
2022/06/07 11:11:39;;;;;;;10.65;9.02;;;19.30;99.90;;;;;;5089817;28;20054;-76
2022/06/07 11:14:13;;;;;;;10.05;8.88;;;19.40;99.90;;;;;;5079140;28;20074;-78
2022/06/07 11:17:03;;;;;;;11.52;9.57;;;19.40;99.90;;;;;;5073274;28;20115;-76
2022/06/07 11:19:30;;;;;;;8.57;7.88;;;19.50;99.90;;;;;;5089322;28;20028;-77
2022/06/07 11:22:01;;;;;;;9.65;8.85;;;19.70;99.90;;;;;;5083981;28;20027;-76
2022/06/07 11:24:32;;;;;;;9.98;8.43;;;19.80;99.90;;;;;;5083883;28;20115;-77
2022/06/07 11:27:16;;;;;;;9.70;8.77;;;20.10;99.90;;;;;;5081830;28;20032;-76
2022/06/07 11:29:42;;;;;;;9.55;8.77;;;20.10;99.90;;;;;;5080966;28;20032;-76
2022/06/07 11:32:38;;;;;;;9.10;8.20;;;20.20;99.90;;;;;;5079604;28;20494;-76
2022/06/07 11:35:42;;;;;;;10.43;9.52;;;20.20;99.90;;;;;;5080023;28;20071;-75
2022/06/07 11:38:24;;;;;;;11.00;8.70;;;20.30;99.90;;;;;;5090942;28;20152;-76
2022/06/07 11:40:51;;;;;;;10.88;9.77;;;20.20;99.90;;;;;;5077499;28;20028;-75
2022/06/07 11:43:54;;;;;;;10.32;9.40;;;20.10;99.90;;;;;;5082314;28;20088;-77
2022/06/07 11:46:35;;;;;;;13.05;10.40;;;20.00;99.90;;;;;;5075479;28;20040;-77
2022/06/07 11:49:26;;;;;;;10.45;9.45;;;19.90;99.90;;;;;;5085042;28;20048;-77
2022/06/07 11:52:22;;;;;;;;;;;19.90;99.90;;;;;;5076073;28;20016;-77
2022/06/07 11:54:53;;;;;;;12.63;8.75;;;20.00;99.90;;;;;;5078537;28;19970;-77
2022/06/07 11:57:39;;;;;;;12.60;9.45;;;19.80;99.90;;;;;;5086664;28;20115;-76
2022/06/07 12:00:21;;;;;;;10.25;8.63;;;19.70;99.90;;;;;;5087142;28;20375;-78
2022/06/07 12:03:08;;;;;;;12.23;11.02;;;19.70;99.90;;;;;;5087107;28;20323;-77
2022/06/07 12:05:42;;;;;;;11.02;10.02;;;19.70;99.90;;;;;;5088642;28;20024;-77
2022/06/07 12:08:38;;;;;;;12.50;11.27;;;19.80;99.90;;;;;;5087995;28;20016;-80
2022/06/07 12:11:23;;;;;;;10.80;9.23;;;19.80;99.90;;;;;;5082551;28;20110;-79
2022/06/07 12:14:23;;;;;;;12.05;10.55;;;20.00;99.90;;;;;;5078198;28;20357;-79
2022/06/07 12:16:56;;;;;;;10.73;9.57;;;20.00;99.90;;;;;;5086271;28;20032;-78
2022/06/07 12:19:23;;;;;;;11.18;10.10;;;20.10;99.90;;;;;;5088750;28;20384;-78
2022/06/07 12:22:12;;;;;;;14.10;12.15;;;20.00;99.90;;;;;;5083061;28;20020;-78
2022/06/07 12:25:10;;;;;;;11.68;10.52;;;20.00;99.90;;;;;;5082352;28;20016;-79
2022/06/07 12:27:45;;;;;;;10.55;9.65;;;20.00;99.90;;;;;;5081420;28;20016;-78
2022/06/07 12:30:32;;;;;;;14.77;10.35;;;20.20;99.90;;;;;;5083907;28;20484;-78
2022/06/07 12:33:28;;;;;;;10.40;9.35;;;20.20;99.90;;;;;;5085550;28;20415;-78
2022/06/07 12:36:21;;;;;;;11.95;10.88;;;20.50;99.90;;;;;;5084618;28;20479;-77
2022/06/07 12:38:49;;;;;;;10.43;9.38;;;20.50;99.90;;;;;;5085937;28;20035;-76
2022/06/07 12:41:22;;;;;;;12.57;11.30;;;20.60;99.90;;;;;;5087943;28;20032;-77
2022/06/07 12:43:55;;;;;;;13.43;11.85;;;20.70;99.90;;;;;;5088202;28;20087;-78
2022/06/07 12:46:24;;;;;;;13.23;11.98;;;20.70;99.90;;;;;;5086093;28;20089;-77
2022/06/07 12:48:51;;;;;;;14.73;12.45;;;20.80;99.90;;;;;;5089752;28;20097;-72
2022/06/07 12:51:24;;;;;;;14.10;12.63;;;20.80;99.90;;;;;;5088341;28;20031;-75
2022/06/07 12:53:58;;;;;;;17.48;13.80;;;20.60;99.90;;;;;;5090056;28;20030;-75
2022/06/07 12:56:28;;;;;;;12.07;10.77;;;20.50;99.90;;;;;;5078262;28;20123;-77
2022/06/07 12:58:56;;;;;;;11.02;9.90;;;20.70;99.90;;;;;;5082963;28;20012;-79
2022/06/07 13:01:35;;;;;;;14.23;12.27;;;20.60;99.90;;;;;;5079887;28;20110;-76
2022/06/07 13:04:20;;;;;;;14.13;11.80;;;20.60;99.90;;;;;;5071398;28;20020;-76
2022/06/07 13:07:24;;;;;;;12.40;11.20;;;20.60;99.90;;;;;;5084179;28;20028;-76
2022/06/07 13:09:56;;;;;;;14.13;12.63;;;20.70;99.90;;;;;;5077027;28;20483;-77
2022/06/07 13:12:34;;;;;;;9.77;8.85;;;20.80;99.90;;;;;;5082030;28;20024;-76
2022/06/07 13:15:04;;;;;;;11.98;10.57;;;21.00;99.90;;;;;;5087519;28;20712;-76
2022/06/07 13:17:30;;;;;;;13.95;9.57;;;21.00;99.90;;;;;;5086505;28;20031;-76
2022/06/07 13:19:56;;;;;;;9.30;8.40;;;20.90;99.90;;;;;;5085520;28;20048;-77
2022/06/07 13:22:23;;;;;;;9.52;8.60;;;20.80;99.90;;;;;;5087377;28;20109;-78
2022/06/07 13:24:55;;;;;;;10.27;8.32;;;20.70;99.90;;;;;;5091720;28;20023;-76